Time;durP1;ratioP1;P1;durP2;ratioP2;P2;SDS_P1;SDS_P2;PMS_P1;PMS_P2;Temp;Humidity;BMP_temperature;BMP_pressure;BME280_temperature;BME280_humidity;BME280_pressure;Samples;Min_cycle;Max_cycle;Signal;HPM_P1;HPM_P2
2022/06/28 00:00:19;;;;;;;0.10;0.10;;;;;;;22.39;54.59;101724.13;5109333;28;20394;-39
2022/06/28 00:02:45;;;;;;;0.10;0.10;;;;;;;22.40;54.57;101725.78;5106906;28;20043;-39
2022/06/28 00:05:11;;;;;;;0.10;0.10;;;;;;;22.41;54.62;101726.59;5104113;28;20473;-40
2022/06/28 00:07:37;;;;;;;0.10;0.10;;;;;;;22.40;54.51;101717.47;5107200;28;20071;-41
2022/06/28 00:10:03;;;;;;;0.10;0.10;;;;;;;22.41;54.58;101712.72;5090343;28;20056;-40
2022/06/28 00:12:29;;;;;;;0.10;0.10;;;;;;;22.39;54.70;101721.34;5105976;28;20059;-37
2022/06/28 00:17:40;;;;;;;0.10;0.10;;;;;;;22.39;54.49;101695.56;5095108;28;20135;-40
2022/06/28 00:20:06;;;;;;;0.10;0.10;;;;;;;22.40;54.60;101706.34;5094760;28;20059;-39
2022/06/28 00:22:32;;;;;;;0.10;0.10;;;;;;;22.40;54.49;101709.13;5094202;28;21141;-40
2022/06/28 00:24:58;;;;;;;0.10;0.10;;;;;;;22.39;54.70;101710.25;5111894;28;20159;-38
2022/06/28 00:27:23;;;;;;;0.10;0.10;;;;;;;22.39;54.42;101706.66;5110948;28;20148;-38
2022/06/28 00:29:49;;;;;;;0.10;0.10;;;;;;;22.39;54.55;101709.44;5094237;28;20043;-40
2022/06/28 00:32:15;;;;;;;0.10;0.10;;;;;;;22.40;54.53;101703.59;5110990;28;20044;-37
2022/06/28 00:34:40;;;;;;;0.10;0.10;;;;;;;22.41;54.53;101707.19;5110797;28;20364;-40
2022/06/28 00:37:06;;;;;;;0.10;0.10;;;;;;;22.40;54.58;101705.53;5109738;28;21201;-40
2022/06/28 00:39:32;;;;;;;0.10;0.10;;;;;;;22.39;54.54;101699.16;5110256;28;20393;-38
2022/06/28 00:41:57;;;;;;;0.10;0.10;;;;;;;22.41;54.54;101707.19;5112178;28;20051;-40
2022/06/28 00:44:23;;;;;;;0.10;0.10;;;;;;;22.41;54.50;101712.72;5110199;28;20490;-39
2022/06/28 00:46:49;;;;;;;0.10;0.10;;;;;;;22.40;54.55;101708.31;5109410;28;20074;-40
2022/06/28 00:49:15;;;;;;;0.10;0.10;;;;;;;22.40;54.58;101709.13;5111204;28;20054;-40
2022/06/28 00:51:40;;;;;;;0.20;0.20;;;;;;;22.39;54.59;101710.25;5112345;28;20050;-41
2022/06/28 00:54:07;;;;;;;0.10;0.10;;;;;;;22.39;54.44;101707.47;5093729;28;20048;-39
2022/06/28 00:56:33;;;;;;;0.10;0.10;;;;;;;22.38;54.55;101716.94;5093562;28;20743;-40
2022/06/28 00:58:59;;;;;;;0.10;0.10;;;;;;;22.39;54.49;101715.81;5075059;28;20081;-38
2022/06/28 01:01:25;;;;;;;0.10;0.10;;;;;;;22.39;54.52;101714.97;5111066;28;20043;-40
2022/06/28 01:03:52;;;;;;;0.10;0.10;;;;;;;22.39;54.55;101715.81;5093048;28;20482;-40
2022/06/28 01:06:17;;;;;;;0.10;0.10;;;;;;;22.38;54.50;101713.31;5076444;28;20131;-41
2022/06/28 01:08:46;;;;;;;0.10;0.10;;;;;;;22.39;54.62;101714.97;5091890;28;20074;-40
2022/06/28 01:11:19;;;;;;;;;;;;;;;22.39;54.41;101709.44;5105470;28;20071;-39
2022/06/28 01:13:51;;;;;;;0.10;0.10;;;;;;;22.38;54.54;101718.88;5109732;28;19919;-39
2022/06/28 01:16:17;;;;;;;0.10;0.10;;;;;;;22.38;54.48;101719.69;5092665;28;20105;-41
2022/06/28 01:18:44;;;;;;;0.10;0.10;;;;;;;22.37;54.47;101715.28;5089727;28;20066;-40
2022/06/28 01:21:13;;;;;;;0.10;0.10;;;;;;;22.39;54.56;101717.75;5092346;28;20242;-40
2022/06/28 01:23:39;;;;;;;0.10;0.10;;;;;;;22.38;54.55;101718.88;5076391;28;20067;-40
2022/06/28 01:26:05;;;;;;;0.10;0.10;;;;;;;22.37;54.52;101720.81;5111189;28;20181;-40
2022/06/28 01:28:32;;;;;;;0.10;0.10;;;;;;;22.38;54.55;101721.66;5110532;28;20047;-40
2022/06/28 01:30:58;;;;;;;0.10;0.10;;;;;;;22.38;54.53;101730.81;5110017;28;20075;-41
2022/06/28 01:33:24;;;;;;;0.10;0.10;;;;;;;22.38;54.56;101730.81;5110676;28;20112;-40
2022/06/28 01:35:50;;;;;;;0.10;0.10;;;;;;;22.38;54.48;101729.97;5110265;28;20040;-40
2022/06/28 01:38:15;;;;;;;0.10;0.10;;;;;;;22.37;54.46;101731.91;5109394;28;20048;-40
2022/06/28 01:40:45;;;;;;;0.10;0.10;;;;;;;22.37;54.49;101737.47;5110338;28;20044;-40
2022/06/28 01:43:13;;;;;;;0.10;0.10;;;;;;;22.38;54.47;101732.75;5109062;28;20537;-42
2022/06/28 01:45:40;;;;;;;0.10;0.10;;;;;;;22.38;54.50;101738.31;5090966;28;20048;-40
2022/06/28 01:48:06;;;;;;;0.10;0.10;;;;;;;22.39;54.35;101732.44;5100363;28;20477;-40
2022/06/28 01:50:31;;;;;;;0.10;0.10;;;;;;;22.38;54.55;101739.13;5092895;28;20471;-40
2022/06/28 01:52:57;;;;;;;0.10;0.10;;;;;;;22.38;54.44;101738.31;5092739;28;20047;-40
2022/06/28 01:55:23;;;;;;;0.10;0.10;;;;;;;22.38;54.48;101741.06;5110511;28;20470;-41
2022/06/28 01:57:48;;;;;;;0.10;0.10;;;;;;;22.37;54.46;101743.03;5109775;28;20039;-41
2022/06/28 02:00:14;;;;;;;0.10;0.10;;;;;;;22.37;54.42;101744.97;5110392;28;20054;-38
2022/06/28 02:02:40;;;;;;;0.10;0.10;;;;;;;22.38;54.58;101753.00;5090708;28;20077;-40
2022/06/28 02:05:07;;;;;;;0.10;0.10;;;;;;;22.38;54.51;101752.19;5108123;28;20054;-39
2022/06/28 02:07:33;;;;;;;0.10;0.10;;;;;;;22.37;54.28;101759.69;5109140;28;20797;-39
2022/06/28 02:09:58;;;;;;;0.10;0.10;;;;;;;22.38;54.53;101764.09;5110264;28;20146;-41
2022/06/28 02:12:28;;;;;;;0.10;0.10;;;;;;;22.38;54.50;101771.59;5091668;28;20046;-41
2022/06/28 02:14:57;;;;;;;0.10;0.10;;;;;;;22.38;54.42;101774.38;5108132;28;20405;-40
2022/06/28 02:17:23;;;;;;;0.10;0.10;;;;;;;22.37;54.42;101775.50;5107900;28;20058;-40
2022/06/28 02:19:49;;;;;;;0.10;0.10;;;;;;;22.37;54.36;101784.66;5111575;28;20089;-39
2022/06/28 02:22:15;;;;;;;0.10;0.10;;;;;;;22.37;54.49;101786.59;5091664;28;20040;-40
2022/06/28 02:24:40;;;;;;;0.10;0.10;;;;;;;22.37;54.49;101781.03;5091631;28;20051;-40
2022/06/28 02:27:06;;;;;;;0.20;0.20;;;;;;;22.37;54.48;101786.59;5091164;28;20059;-40
2022/06/28 02:29:32;;;;;;;0.10;0.10;;;;;;;22.37;54.45;101789.38;5108576;28;20044;-40
2022/06/28 02:31:57;;;;;;;0.20;0.20;;;;;;;22.37;54.48;101790.19;5109966;28;20551;-39
2022/06/28 02:40:25;;;;;;;0.20;0.20;;;;;;;22.36;54.51;101790.47;5094071;28;20063;-41
2022/06/28 02:42:41;;;;;;;0.10;0.10;;;;;;;22.36;54.45;101794.06;5092232;28;20050;-41
2022/06/28 02:45:07;;;;;;;0.10;0.10;;;;;;;22.36;54.53;101793.25;5108997;28;20039;-40
2022/06/28 02:47:33;;;;;;;0.10;0.10;;;;;;;22.37;54.46;101797.69;5088721;28;20067;-41
2022/06/28 02:49:58;;;;;;;0.10;0.10;;;;;;;22.38;54.30;101799.34;5109578;28;20039;-39
2022/06/28 02:52:24;;;;;;;0.10;0.10;;;;;;;22.36;54.40;101801.56;5109711;28;20051;-40
2022/06/28 02:54:50;;;;;;;0.10;0.10;;;;;;;22.37;54.31;101797.69;5110990;28;20104;-40
2022/06/28 02:57:15;;;;;;;0.10;0.10;;;;;;;22.37;54.39;101806.84;5107693;28;20363;-42
2022/06/28 02:59:41;;;;;;;0.10;0.10;;;;;;;22.35;54.45;101800.72;5110281;28;20040;-41
2022/06/28 03:02:07;;;;;;;0.10;0.10;;;;;;;22.37;54.39;101800.47;5110139;28;20043;-40
2022/06/28 03:04:32;;;;;;;0.10;0.10;;;;;;;22.37;54.38;101806.03;5109215;28;20049;-40
2022/06/28 03:06:58;;;;;;;0.10;0.10;;;;;;;22.35;54.47;101803.50;5105739;28;20430;-39
2022/06/28 03:09:24;;;;;;;0.10;0.10;;;;;;;22.35;54.29;101800.72;5109895;28;20062;-41
2022/06/28 03:11:49;;;;;;;0.10;0.10;;;;;;;22.37;54.45;101803.25;5109634;28;20448;-40
2022/06/28 03:14:15;;;;;;;0.10;0.10;;;;;;;22.36;54.40;101804.34;5109508;28;20058;-40
2022/06/28 03:16:41;;;;;;;0.10;0.10;;;;;;;22.37;54.37;101808.81;5107646;28;20058;-38
2022/06/28 03:19:06;;;;;;;0.10;0.10;;;;;;;22.36;54.31;101815.44;5107569;28;20387;-40
2022/06/28 03:21:32;;;;;;;0.10;0.10;;;;;;;22.35;54.25;101816.56;5109645;28;20040;-39
2022/06/28 03:23:58;;;;;;;0.10;0.10;;;;;;;22.36;54.17;101815.44;5108062;28;20385;-40
2022/06/28 03:26:23;;;;;;;0.10;0.10;;;;;;;22.35;54.38;101811.00;5108757;28;20047;-40
2022/06/28 03:28:49;;;;;;;0.10;0.10;;;;;;;22.35;54.56;101814.63;5106606;28;21382;-40
2022/06/28 03:31:15;;;;;;;0.10;0.10;;;;;;;22.37;54.15;101828.22;5109132;28;20036;-40
2022/06/28 03:33:40;;;;;;;0.10;0.10;;;;;;;22.36;54.53;101824.59;5109425;28;20042;-40
2022/06/28 03:36:06;;;;;;;0.10;0.10;;;;;;;22.36;54.39;101832.91;5090822;28;20051;-40
2022/06/28 03:38:32;;;;;;;0.10;0.10;;;;;;;22.36;54.37;101835.69;5107691;28;20100;-40
2022/06/28 03:40:57;;;;;;;0.10;0.10;;;;;;;22.35;54.31;101836.81;5108087;28;20040;-40
2022/06/28 03:43:23;;;;;;;0.10;0.10;;;;;;;22.36;54.16;101832.09;5107825;28;20055;-39
2022/06/28 03:45:49;;;;;;;0.10;0.10;;;;;;;22.34;54.40;101840.72;5110177;28;20397;-40
2022/06/28 03:48:14;;;;;;;0.10;0.10;;;;;;;22.35;54.30;101835.97;5107147;28;20052;-39
2022/06/28 03:50:40;;;;;;;0.10;0.10;;;;;;;22.34;54.46;101840.72;5108950;28;20055;-40
2022/06/28 03:53:06;;;;;;;0.10;0.10;;;;;;;22.34;54.35;101846.25;5113116;28;20051;-39
2022/06/28 03:55:31;;;;;;;0.10;0.10;;;;;;;22.36;54.39;101848.75;5094626;28;20402;-40
2022/06/28 03:57:57;;;;;;;0.10;0.10;;;;;;;22.34;54.39;101843.47;5110296;28;20044;-40
2022/06/28 04:00:23;;;;;;;0.10;0.10;;;;;;;22.35;54.33;101838.75;5113387;28;20046;-38
2022/06/28 04:02:48;;;;;;;0.10;0.10;;;;;;;22.35;54.40;101844.31;5111240;28;20389;-40
2022/06/28 04:05:15;;;;;;;0.10;0.10;;;;;;;22.34;54.51;101840.72;5111671;28;20043;-41
2022/06/28 04:07:42;;;;;;;0.10;0.10;;;;;;;22.33;54.42;101841.00;5108911;28;20097;-40
2022/06/28 04:10:08;;;;;;;0.10;0.10;;;;;;;22.35;54.42;101850.69;5112016;28;20040;-40
2022/06/28 04:12:34;;;;;;;0.10;0.10;;;;;;;22.34;54.37;101846.25;5093782;28;20051;-41
2022/06/28 04:14:59;;;;;;;0.10;0.10;;;;;;;22.34;54.76;101851.81;5111792;28;20039;-40
2022/06/28 04:17:25;;;;;;;0.10;0.10;;;;;;;22.34;54.37;101853.75;5109264;28;20036;-38
2022/06/28 04:19:50;;;;;;;0.10;0.10;;;;;;;22.34;54.26;101851.81;5112945;28;20054;-41
2022/06/28 04:22:16;;;;;;;0.10;0.10;;;;;;;22.34;54.38;101850.97;5111928;28;20130;-40
2022/06/28 04:24:42;;;;;;;0.10;0.10;;;;;;;22.35;54.39;101861.78;5112552;28;20050;-41
2022/06/28 04:27:07;;;;;;;0.10;0.10;;;;;;;22.33;54.34;101864.03;5109273;28;20048;-42
2022/06/28 04:29:33;;;;;;;0.10;0.10;;;;;;;22.34;54.38;101859.31;5111682;28;20070;-40
2022/06/28 04:31:59;;;;;;;0.10;0.10;;;;;;;22.34;54.42;101857.34;5112175;28;20070;-41
2022/06/28 04:34:29;;;;;;;0.10;0.10;;;;;;;22.33;54.38;101864.03;5111229;28;20046;-40
2022/06/28 04:36:54;;;;;;;0.10;0.10;;;;;;;22.33;54.16;101858.47;5110760;28;20051;-36
2022/06/28 04:39:20;;;;;;;0.10;0.10;;;;;;;22.33;54.36;101863.19;5110730;28;20055;-41
2022/06/28 04:41:46;;;;;;;0.10;0.10;;;;;;;22.33;54.46;101858.47;5111637;28;20465;-40
2022/06/28 04:44:11;;;;;;;0.10;0.10;;;;;;;22.34;54.29;101856.53;5109965;28;20107;-40
2022/06/28 04:46:38;;;;;;;0.10;0.10;;;;;;;22.34;54.29;101856.53;5108592;28;20054;-40
2022/06/28 04:49:06;;;;;;;0.10;0.10;;;;;;;22.32;54.28;101856.78;5108430;28;20052;-42
2022/06/28 04:51:32;;;;;;;0.10;0.10;;;;;;;22.34;54.32;101856.53;5112429;28;20562;-40
2022/06/28 04:53:58;;;;;;;0.10;0.10;;;;;;;22.33;54.34;101852.94;5111109;28;20046;-39
2022/06/28 04:56:24;;;;;;;0.10;0.10;;;;;;;22.34;54.34;101864.84;5112294;28;20058;-40
2022/06/28 04:58:51;;;;;;;0.10;0.10;;;;;;;22.34;54.25;101864.84;5108701;28;20079;-41
2022/06/28 05:01:17;;;;;;;0.10;0.10;;;;;;;22.34;54.34;101853.75;5093663;28;20078;-41
2022/06/28 05:03:43;;;;;;;0.10;0.10;;;;;;;22.34;54.31;101864.84;5111482;28;20036;-41
2022/06/28 05:06:09;;;;;;;0.10;0.10;;;;;;;22.33;54.35;101860.41;5111045;28;20044;-40
2022/06/28 05:08:34;;;;;;;0.10;0.10;;;;;;;22.33;54.23;101861.25;5108710;28;20058;-40
2022/06/28 05:11:01;;;;;;;0.10;0.10;;;;;;;22.34;54.38;101853.75;5110901;28;20065;-39
2022/06/28 05:13:26;;;;;;;0.10;0.10;;;;;;;22.33;54.48;101846.56;5091738;28;20078;-43
2022/06/28 05:15:52;;;;;;;0.10;0.10;;;;;;;22.32;54.13;101848.47;5109814;28;20050;-40
2022/06/28 05:18:18;;;;;;;0.10;0.10;;;;;;;22.34;54.33;101854.59;5091170;28;20114;-41
2022/06/28 05:20:43;;;;;;;0.10;0.10;;;;;;;22.32;54.25;101847.63;5111044;28;20039;-41
2022/06/28 05:23:09;;;;;;;0.10;0.10;;;;;;;22.33;54.25;101844.59;5111026;28;20039;-42
2022/06/28 05:25:35;;;;;;;0.10;0.10;;;;;;;22.33;54.28;101850.16;5110203;28;20062;-41
2022/06/28 05:28:00;;;;;;;0.10;0.10;;;;;;;22.34;54.27;101848.19;5109523;28;20390;-41
2022/06/28 05:30:26;;;;;;;0.10;0.10;;;;;;;22.33;54.09;101854.88;5111047;28;20103;-40
2022/06/28 05:32:52;;;;;;;0.10;0.10;;;;;;;22.32;54.31;101861.50;5110573;28;20134;-40
2022/06/28 05:35:17;;;;;;;0.10;0.10;;;;;;;22.31;54.16;101857.91;5109969;28;20048;-39
2022/06/28 05:37:43;;;;;;;0.10;0.10;;;;;;;22.33;54.30;101857.66;5107976;28;20371;-41
2022/06/28 05:40:09;;;;;;;0.10;0.10;;;;;;;22.32;53.99;101859.56;5110723;28;20059;-40
2022/06/28 05:42:35;;;;;;;0.10;0.10;;;;;;;22.32;54.23;101854.00;5108895;28;20551;-42
2022/06/28 05:45:00;;;;;;;0.10;0.10;;;;;;;22.33;54.17;101854.88;5110876;28;20040;-44
2022/06/28 05:47:26;;;;;;;0.10;0.10;;;;;;;22.32;54.13;101851.25;5107104;28;20433;-41
2022/06/28 05:49:52;;;;;;;0.10;0.10;;;;;;;22.32;54.15;101856.78;5110567;28;20118;-41
2022/06/28 05:52:17;;;;;;;0.10;0.10;;;;;;;22.32;54.25;101851.25;5109846;28;20046;-41
2022/06/28 05:54:46;;;;;;;0.10;0.10;;;;;;;22.30;54.30;101850.69;5110847;28;20067;-45
2022/06/28 05:57:12;;;;;;;0.10;0.10;;;;;;;21.99;55.33;101845.16;5108497;28;20662;-43
2022/06/28 05:59:37;;;;;;;0.10;0.10;;;;;;;21.88;55.84;101846.25;5109613;28;20051;-44
2022/06/28 06:02:03;;;;;;;0.10;0.10;;;;;;;21.87;55.92;101852.09;5110050;28;20047;-41
2022/06/28 06:04:30;;;;;;;0.10;0.10;;;;;;;21.83;56.30;101850.97;5109305;28;20044;-43
2022/06/28 06:06:55;;;;;;;0.10;0.10;;;;;;;21.83;56.16;101851.81;5108043;28;20040;-41
2022/06/28 06:09:21;;;;;;;0.10;0.10;;;;;;;21.84;56.38;101847.09;5110195;28;20135;-41
2022/06/28 06:11:47;;;;;;;0.10;0.10;;;;;;;21.84;56.21;101844.31;5109268;28;20044;-41
2022/06/28 06:14:15;;;;;;;0.10;0.10;;;;;;;21.80;56.34;101844.03;5090880;28;20083;-42
2022/06/28 06:16:41;;;;;;;;;;;;;;;21.82;56.48;101852.91;5091612;28;20067;-42
2022/06/28 06:19:07;;;;;;;0.10;0.10;;;;;;;21.87;56.28;101860.41;5108103;28;19981;-42
2022/06/28 06:21:32;;;;;;;0.10;0.10;;;;;;;21.85;56.18;101848.75;5110293;28;20491;-43
2022/06/28 06:23:58;;;;;;;0.10;0.10;;;;;;;21.93;55.95;101853.72;5109167;28;20045;-42
2022/06/28 06:26:24;;;;;;;0.10;0.10;;;;;;;21.89;56.30;101855.41;5110932;28;20048;-41
2022/06/28 06:28:50;;;;;;;0.10;0.10;;;;;;;21.88;56.24;101860.13;5108083;28;20086;-42
2022/06/28 06:31:16;;;;;;;0.10;0.10;;;;;;;21.83;56.45;101860.13;5091942;28;20039;-43
2022/06/28 06:33:42;;;;;;;0.10;0.10;;;;;;;21.77;56.62;101859.28;5107505;28;20047;-42
2022/06/28 06:36:07;;;;;;;0.10;0.10;;;;;;;21.75;56.76;101864.25;5108775;28;20039;-41
2022/06/28 06:38:33;;;;;;;0.20;0.20;;;;;;;21.74;56.90;101861.78;5108305;28;20408;-42
2022/06/28 06:40:59;;;;;;;0.10;0.10;;;;;;;21.75;57.03;101866.22;5091993;28;20104;-41
2022/06/28 06:43:26;;;;;;;0.10;0.10;;;;;;;21.75;56.97;101866.22;5089196;28;20047;-42
2022/06/28 06:45:52;;;;;;;0.10;0.10;;;;;;;21.77;56.81;101872.31;5108498;28;20113;-43
2022/06/28 06:48:18;;;;;;;0.10;0.10;;;;;;;21.77;56.68;101869.56;5107085;28;20082;-41
2022/06/28 06:50:44;;;;;;;0.10;0.10;;;;;;;21.78;56.62;101869.28;5107695;28;20043;-42
2022/06/28 06:53:10;;;;;;;0.10;0.10;;;;;;;21.73;57.01;101866.50;5089916;28;20046;-42
2022/06/28 06:55:36;;;;;;;0.10;0.10;;;;;;;21.73;56.82;101871.22;5110051;28;20105;-42
2022/06/28 06:58:02;;;;;;;0.10;0.10;;;;;;;21.72;56.70;101873.16;5107979;28;20047;-41
2022/06/28 07:00:28;;;;;;;0.10;0.10;;;;;;;21.72;56.91;101869.56;5108674;28;20053;-42
2022/06/28 07:02:53;;;;;;;0.10;0.10;;;;;;;21.72;56.89;101867.59;5109447;28;20466;-44
2022/06/28 07:05:19;;;;;;;0.10;0.10;;;;;;;21.81;56.49;101867.06;5108948;28;20043;-45
2022/06/28 07:07:45;;;;;;;0.10;0.10;;;;;;;21.88;56.36;101868.44;5106712;28;20047;-41
2022/06/28 07:10:11;;;;;;;0.10;0.10;;;;;;;21.93;56.13;101873.97;5108759;28;20052;-41
2022/06/28 07:12:43;;;;;;;0.10;0.10;;;;;;;21.89;56.21;101872.03;5109299;28;20039;-44
2022/06/28 07:15:09;;;;;;;0.10;0.10;;;;;;;21.84;56.39;101872.03;5109111;28;20048;-44
2022/06/28 07:17:35;;;;;;;0.10;0.10;;;;;;;21.77;56.59;101872.31;5106945;28;20055;-43
2022/06/28 07:20:01;;;;;;;0.10;0.10;;;;;;;21.73;56.64;101868.44;5109514;28;20130;-41
2022/06/28 07:22:26;;;;;;;0.10;0.10;;;;;;;21.77;56.63;101872.31;5108301;28;20098;-42
2022/06/28 07:24:53;;;;;;;0.10;0.10;;;;;;;21.85;56.31;101857.91;5111010;28;20059;-44
2022/06/28 07:27:20;;;;;;;0.10;0.10;;;;;;;21.88;56.32;101859.28;5109789;28;20085;-44
2022/06/28 07:29:45;;;;;;;0.10;0.10;;;;;;;21.94;56.09;101853.47;5093991;28;20477;-43
2022/06/28 07:32:11;;;;;;;0.10;0.10;;;;;;;21.88;56.27;101859.28;5111471;28;20046;-42
2022/06/28 07:34:36;;;;;;;0.10;0.10;;;;;;;21.90;56.05;101857.09;5111809;28;20473;-44
2022/06/28 07:37:02;;;;;;;0.10;0.10;;;;;;;21.91;56.29;101858.75;5110552;28;20059;-43
2022/06/28 07:39:29;;;;;;;0.10;0.10;;;;;;;21.84;56.46;101855.41;5111921;28;20039;-42
2022/06/28 07:41:54;;;;;;;0.10;0.10;;;;;;;21.82;56.42;101855.69;5111547;28;20794;-41
2022/06/28 07:44:20;;;;;;;0.10;0.10;;;;;;;21.89;56.14;101847.94;5112124;28;20092;-43
2022/06/28 07:46:45;;;;;;;0.10;0.10;;;;;;;21.88;55.99;101853.75;5111002;28;20396;-43
2022/06/28 07:49:11;;;;;;;0.10;0.10;;;;;;;21.82;56.62;101852.09;5110250;28;20048;-42
2022/06/28 07:54:23;;;;;;;0.10;0.10;;;;;;;21.78;56.24;101857.34;5082715;28;20078;-44
2022/06/28 07:56:48;;;;;;;0.10;0.10;;;;;;;21.78;55.14;101855.41;5111296;28;20040;-43
2022/06/28 07:59:14;;;;;;;0.10;0.10;;;;;;;21.83;55.05;101862.06;5111980;28;20052;-42
2022/06/28 08:01:40;;;;;;;0.10;0.10;;;;;;;21.71;52.81;101857.59;5108533;28;20035;-42
2022/06/28 08:04:07;;;;;;;0.10;0.10;;;;;;;21.71;52.69;101845.69;5110824;28;20484;-43
2022/06/28 08:06:34;;;;;;;0.10;0.10;;;;;;;21.75;53.13;101846.81;5108744;28;20057;-42
2022/06/28 08:09:00;;;;;;;0.10;0.10;;;;;;;21.76;52.42;101849.31;5097651;28;20075;-43
2022/06/28 08:11:26;;;;;;;0.10;0.10;;;;;;;21.75;52.09;101849.56;5110746;28;20043;-42
2022/06/28 08:13:54;;;;;;;0.10;0.10;;;;;;;21.78;52.47;101851.81;5100630;28;20127;-43
2022/06/28 08:16:21;;;;;;;0.10;0.10;;;;;;;21.77;52.50;101850.97;5116063;28;20083;-43
2022/06/28 08:18:46;;;;;;;0.10;0.10;;;;;;;21.74;51.92;101845.97;5110856;28;20139;-41
2022/06/28 08:21:18;;;;;;;0.10;0.10;;;;;;;21.70;52.05;101844.84;5109304;28;20048;-42
2022/06/28 08:23:44;;;;;;;0.10;0.10;;;;;;;21.70;51.88;101842.09;5113062;28;20093;-43
2022/06/28 08:26:10;;;;;;;0.10;0.10;;;;;;;21.70;52.12;101849.56;5114505;28;20051;-42
2022/06/28 08:28:35;;;;;;;0.10;0.10;;;;;;;21.77;52.02;101839.88;5114818;28;20401;-44
2022/06/28 08:31:01;;;;;;;0.10;0.10;;;;;;;21.74;51.47;101831.28;5114441;28;20040;-44
2022/06/28 08:33:27;;;;;;;0.17;0.17;;;;;;;21.71;50.83;101832.66;5111242;28;20075;-42
2022/06/28 08:35:52;;;;;;;0.10;0.10;;;;;;;21.66;50.51;101838.19;5111504;28;20039;-42
2022/06/28 08:38:18;;;;;;;0.15;0.15;;;;;;;21.64;50.47;101828.50;5110952;28;20386;-43
2022/06/28 08:40:45;;;;;;;0.10;0.10;;;;;;;21.70;49.88;101833.75;5113951;28;20044;-41
2022/06/28 08:43:11;;;;;;;0.10;0.10;;;;;;;21.69;49.88;101832.09;5097981;28;20079;-44
2022/06/28 08:45:37;;;;;;;0.10;0.10;;;;;;;21.71;50.08;101827.09;5107082;28;20051;-41
2022/06/28 08:48:13;;;;;;;0.10;0.10;;;;;;;21.76;50.06;101823.50;5115076;28;20079;-42
2022/06/28 08:50:40;;;;;;;0.10;0.10;;;;;;;21.72;49.42;101822.41;5114479;28;20082;-43
2022/06/28 08:53:08;;;;;;;0.10;0.10;;;;;;;21.71;49.50;101827.09;5117104;28;20425;-43
2022/06/28 08:55:35;;;;;;;0.10;0.10;;;;;;;21.74;50.12;101821.03;5112145;28;20075;-42
2022/06/28 08:58:04;;;;;;;0.10;0.10;;;;;;;21.73;49.41;101824.06;5114873;28;20104;-46
2022/06/28 09:00:30;;;;;;;0.10;0.10;;;;;;;21.69;49.14;101818.25;5104005;28;20141;-44
2022/06/28 09:02:56;;;;;;;0.10;0.10;;;;;;;21.76;49.78;101812.41;5096977;28;20515;-42
2022/06/28 09:05:24;;;;;;;0.10;0.10;;;;;;;21.75;49.67;101817.13;5113117;28;20081;-45
2022/06/28 09:07:50;;;;;;;0.10;0.10;;;;;;;21.74;49.49;101809.09;5095674;28;20471;-45
2022/06/28 09:10:18;;;;;;;0.10;0.10;;;;;;;21.69;49.20;101809.94;5118253;28;20087;-42
2022/06/28 09:13:12;;;;;;;0.20;0.20;;;;;;;21.74;48.94;101796.06;5087000;28;20465;-46
2022/06/28 09:15:56;;;;;;;0.10;0.10;;;;;;;21.76;49.30;101798.56;5119634;28;20446;-43
2022/06/28 09:18:24;;;;;;;0.10;0.10;;;;;;;21.84;49.85;101797.16;5094586;28;20077;-41
2022/06/28 09:20:52;;;;;;;0.10;0.10;;;;;;;21.82;49.92;101804.94;5097056;28;20051;-43
2022/06/28 09:23:27;;;;;;;0.20;0.20;;;;;;;21.79;49.19;101795.22;5100168;28;20478;-44
2022/06/28 09:25:56;;;;;;;0.10;0.10;;;;;;;21.76;48.76;101798.56;5095633;28;20094;-43
2022/06/28 09:28:24;;;;;;;0.10;0.10;;;;;;;21.71;48.86;101793.84;5112644;28;20481;-42
2022/06/28 09:30:49;;;;;;;0.10;0.10;;;;;;;21.68;48.52;101794.41;5115734;28;20201;-42
2022/06/28 09:33:30;;;;;;;0.10;0.10;;;;;;;21.71;48.09;101793.00;5096092;28;20063;-44
2022/06/28 09:35:56;;;;;;;0.10;0.10;;;;;;;21.72;48.20;101787.22;5117216;28;20036;-42
2022/06/28 09:38:32;;;;;;;0.10;0.10;;;;;;;21.72;48.13;101781.66;5110472;28;20047;-43
2022/06/28 09:40:59;;;;;;;0.20;0.20;;;;;;;21.74;48.13;101784.97;5098649;28;20108;-44
2022/06/28 09:43:33;;;;;;;0.20;0.20;;;;;;;21.71;47.53;101784.69;5113115;28;20128;-43
2022/06/28 09:46:03;;;;;;;0.10;0.10;;;;;;;21.68;48.18;101791.63;5100414;28;20334;-43
2022/06/28 09:48:36;;;;;;;0.10;0.10;;;;;;;21.70;47.98;101788.59;5094004;28;20413;-43
2022/06/28 09:51:03;;;;;;;0.10;0.10;;;;;;;21.68;47.75;101779.72;5113509;28;20035;-43
2022/06/28 09:53:30;;;;;;;0.10;0.10;;;;;;;21.67;47.42;101770.53;5095510;28;20161;-42
2022/06/28 09:56:01;;;;;;;0.10;0.10;;;;;;;21.68;47.77;101782.50;5096441;28;20036;-43
2022/06/28 09:58:27;;;;;;;0.10;0.10;;;;;;;21.69;47.36;101775.84;5110991;28;20082;-42
2022/06/28 10:00:54;;;;;;;0.10;0.10;;;;;;;21.65;47.31;101769.19;5093773;28;20466;-42
2022/06/28 10:03:19;;;;;;;0.10;0.10;;;;;;;21.67;47.73;101773.31;5092341;28;20478;-42
2022/06/28 10:05:46;;;;;;;0.10;0.10;;;;;;;21.68;48.11;101766.69;5092963;28;20088;-43
2022/06/28 10:08:12;;;;;;;0.10;0.10;;;;;;;21.69;48.00;101767.53;5109726;28;20137;-42
2022/06/28 10:10:40;;;;;;;0.10;0.10;;;;;;;21.71;47.67;101762.50;5112027;28;20398;-43
2022/06/28 10:16:23;;;;;;;0.10;0.10;;;;;;;21.68;47.28;101761.16;5096333;28;19969;-42
2022/06/28 10:18:49;;;;;;;;;;;;;;;21.68;46.98;101755.59;5109208;28;20496;-42
2022/06/28 10:21:15;;;;;;;0.20;0.20;;;;;;;21.68;47.29;101755.59;5110369;28;19928;-42
2022/06/28 10:23:40;;;;;;;0.10;0.10;;;;;;;21.71;47.13;101751.44;5110466;28;20063;-41
2022/06/28 10:26:18;;;;;;;0.10;0.10;;;;;;;21.71;46.83;101743.09;5111952;28;20067;-45
2022/06/28 10:28:46;;;;;;;0.10;0.10;;;;;;;21.70;46.84;101744.22;5101291;28;20486;-44
2022/06/28 10:34:08;;;;;;;0.10;0.10;;;;;;;21.74;47.52;101740.63;5155394;27;20214;-43
2022/06/28 10:36:51;;;;;;;0.10;0.10;;;;;;;21.78;46.13;101729.81;5099209;27;20079;-40
2022/06/28 10:39:20;;;;;;;0.17;0.17;;;;;;;21.75;45.24;101716.50;5137916;27;20047;-41
2022/06/28 10:41:52;;;;;;;0.10;0.10;;;;;;;21.72;46.45;101714.31;5140841;27;20082;-41
2022/06/28 10:44:22;;;;;;;0.10;0.10;;;;;;;21.72;45.91;101717.91;5124034;27;20074;-41
2022/06/28 10:46:51;;;;;;;0.10;0.10;;;;;;;21.73;45.84;101716.78;5115921;27;20696;-41
2022/06/28 10:49:17;;;;;;;0.10;0.10;;;;;;;21.75;46.95;101717.31;5142192;27;20080;-42
2022/06/28 10:52:07;;;;;;;0.10;0.10;;;;;;;21.76;46.46;101710.69;5120072;27;20164;-40
2022/06/28 10:54:32;;;;;;;0.10;0.10;;;;;;;21.75;46.19;101709.00;5123988;27;20077;-42
2022/06/28 10:57:00;;;;;;;0.10;0.10;;;;;;;21.75;46.21;101714.53;5143406;27;20052;-42
2022/06/28 10:59:35;;;;;;;0.10;0.10;;;;;;;21.79;45.98;101706.50;5137350;27;20089;-41
2022/06/28 11:02:01;;;;;;;0.10;0.10;;;;;;;21.81;46.26;101695.97;5119687;27;20127;-41
2022/06/28 11:04:28;;;;;;;0.10;0.10;;;;;;;21.79;46.12;101699.00;5132406;27;20043;-42
2022/06/28 11:07:15;;;;;;;0.10;0.10;;;;;;;21.76;46.31;101693.19;5121598;27;20082;-41
2022/06/28 11:09:49;;;;;;;0.10;0.10;;;;;;;21.75;46.13;101691.53;5108561;27;20083;-41
2022/06/28 11:12:17;;;;;;;0.10;0.10;;;;;;;21.75;46.09;101686.81;5135671;27;20043;-41
2022/06/28 11:14:49;;;;;;;0.10;0.10;;;;;;;21.73;46.70;101691.00;5135076;27;20183;-42
2022/06/28 11:17:22;;;;;;;0.10;0.10;;;;;;;21.73;46.44;101697.38;5120325;27;20550;-41
2022/06/28 11:19:51;;;;;;;0.10;0.10;;;;;;;21.73;46.99;101683.50;5121501;27;20134;-42
2022/06/28 11:22:20;;;;;;;0.10;0.10;;;;;;;21.72;46.09;101675.50;5139930;27;20164;-42
2022/06/28 11:24:46;;;;;;;0.10;0.10;;;;;;;21.71;45.47;101668.25;5136444;27;20481;-41
2022/06/28 11:27:27;;;;;;;0.10;0.10;;;;;;;21.74;45.29;101676.03;5141514;27;20071;-40
2022/06/28 11:30:02;;;;;;;0.10;0.10;;;;;;;21.74;46.08;101665.75;5137960;27;20053;-42
2022/06/28 11:32:30;;;;;;;0.10;0.10;;;;;;;21.78;46.99;101660.50;5136930;27;20079;-41
2022/06/28 11:34:57;;;;;;;;;;;;;;;21.82;46.95;101658.81;5121549;27;20130;-42
2022/06/28 11:37:23;;;;;;;0.10;0.10;;;;;;;21.78;47.03;101661.31;5141138;27;19998;-42
2022/06/28 11:39:52;;;;;;;0.10;0.10;;;;;;;21.82;47.38;101658.00;5120613;27;20054;-41
2022/06/28 11:42:18;;;;;;;0.17;0.17;;;;;;;21.81;47.64;101661.88;5138232;27;20130;-41